Time;durP1;ratioP1;P1;durP2;ratioP2;P2;SDS_P1;SDS_P2;PMS_P1;PMS_P2;Temp;Humidity;BMP_temperature;BMP_pressure;BME280_temperature;BME280_humidity;BME280_pressure;Samples;Min_cycle;Max_cycle;Signal;HPM_P1;HPM_P2
2023/02/23 00:02:37;;;;;;;41.00;17.35;;;7.70;99.90;;;;;;20866986;28;20522;-42
2023/02/23 00:12:42;;;;;;;26.35;12.43;;;7.80;99.90;;;;;;20872994;28;20044;-42
2023/02/23 00:22:43;;;;;;;23.23;13.75;;;7.70;99.90;;;;;;20883124;28;20044;-42
2023/02/23 00:32:45;;;;;;;33.50;15.75;;;7.80;99.90;;;;;;20881031;28;20044;-43
2023/02/23 00:42:48;;;;;;;36.25;14.30;;;7.80;99.90;;;;;;20875965;28;20476;-42
2023/02/23 00:52:49;;;;;;;24.77;11.57;;;7.80;99.90;;;;;;20879631;28;20068;-42
2023/02/23 01:02:50;;;;;;;32.70;19.20;;;7.80;99.90;;;;;;20874778;28;20258;-42
2023/02/23 01:12:52;;;;;;;28.83;14.20;;;7.70;99.90;;;;;;20873524;28;20221;-43
2023/02/23 01:22:53;;;;;;;25.17;14.25;;;7.80;99.90;;;;;;20877334;28;20485;-43
2023/02/23 01:32:54;;;;;;;21.02;11.77;;;7.80;99.90;;;;;;20873863;28;20045;-42
2023/02/23 01:42:57;;;;;;;23.98;12.63;;;7.80;99.90;;;;;;20870508;28;20859;-42
2023/02/23 01:52:58;;;;;;;28.23;14.63;;;7.80;99.90;;;;;;20867029;28;20053;-42
2023/02/23 02:13:17;;;;;;;24.60;14.40;;;7.80;99.90;;;;;;21321435;23;20176;-40
2023/02/23 02:23:47;;;;;;;;;;;7.70;99.90;;;;;;20639098;28;20354;-40
2023/02/23 02:34:25;;;;;;;25.10;13.38;;;7.80;99.90;;;;;;20619058;28;21504;-40
2023/02/23 02:44:35;;;;;;;32.30;16.98;;;7.70;99.90;;;;;;20631593;28;20081;-40
2023/02/23 02:54:47;;;;;;;30.73;15.18;;;7.70;99.90;;;;;;20632344;28;20042;-41
2023/02/23 04:17:53;;;;;;;31.90;16.27;;;7.70;99.90;;;;;;20636429;28;20046;-41
2023/02/23 04:27:54;;;;;;;26.65;16.25;;;7.70;99.90;;;;;;20626931;28;20034;-41
2023/02/23 04:37:57;;;;;;;30.55;14.55;;;7.60;99.90;;;;;;20630007;28;20108;-41
2023/02/23 04:47:58;;;;;;;26.50;12.35;;;7.60;99.90;;;;;;20628251;28;20038;-41
2023/02/23 04:58:00;;;;;;;37.17;15.07;;;7.60;99.90;;;;;;20624683;28;20046;-41
2023/02/23 05:08:01;;;;;;;27.45;15.18;;;7.60;99.90;;;;;;20618381;28;20041;-41
2023/02/23 05:18:02;;;;;;;20.95;13.13;;;7.60;99.90;;;;;;20617287;28;20076;-41
2023/02/23 05:28:04;;;;;;;28.70;16.35;;;7.50;99.90;;;;;;20616192;28;20063;-41
2023/02/23 05:38:05;;;;;;;23.95;12.88;;;7.60;99.90;;;;;;20620891;28;20057;-41
2023/02/23 05:48:07;;;;;;;26.33;13.18;;;7.60;99.90;;;;;;20638213;28;20049;-41
2023/02/23 05:58:08;;;;;;;27.92;13.70;;;7.50;99.90;;;;;;20630308;28;20061;-41
2023/02/23 06:08:09;;;;;;;22.45;12.02;;;7.50;99.90;;;;;;20629290;28;20046;-41
2023/02/23 06:18:10;;;;;;;22.40;12.15;;;7.50;99.90;;;;;;20627887;28;20050;-41
2023/02/23 06:28:12;;;;;;;33.38;11.10;;;7.50;99.90;;;;;;20633308;28;20053;-41
2023/02/23 06:38:13;;;;;;;26.52;13.32;;;7.40;99.90;;;;;;20617602;28;20205;-41
2023/02/23 06:48:14;;;;;;;24.05;10.90;;;7.40;99.90;;;;;;20628056;28;20317;-41
2023/02/23 06:58:15;;;;;;;25.90;13.32;;;7.50;99.90;;;;;;20624207;28;20269;-41
2023/02/23 07:08:17;;;;;;;21.15;11.77;;;7.50;99.90;;;;;;20631218;28;20050;-41
2023/02/23 07:18:18;;;;;;;24.10;11.88;;;7.50;99.90;;;;;;20626556;28;20053;-41
2023/02/23 07:28:19;;;;;;;26.92;14.18;;;7.50;99.90;;;;;;20631430;28;20050;-41
2023/02/23 07:38:21;;;;;;;24.58;12.32;;;7.50;99.90;;;;;;20612070;28;20050;-41
2023/02/23 07:48:22;;;;;;;24.48;13.52;;;7.60;99.90;;;;;;20629184;28;20046;-41
2023/02/23 07:58:23;;;;;;;19.83;11.40;;;7.60;99.90;;;;;;20631508;28;20038;-41
2023/02/23 08:08:24;;;;;;;31.38;14.82;;;7.70;99.90;;;;;;20638684;28;20221;-41
2023/02/23 08:18:26;;;;;;;31.38;14.85;;;7.80;99.90;;;;;;20630572;28;20054;-41
2023/02/23 08:28:28;;;;;;;26.40;15.32;;;7.80;99.90;;;;;;20626981;28;20057;-41
2023/02/23 08:38:29;;;;;;;25.80;11.68;;;7.90;99.90;;;;;;20619714;28;20076;-41
2023/02/23 08:48:31;;;;;;;22.48;12.75;;;7.90;99.90;;;;;;20633734;28;20510;-41
2023/02/23 08:58:33;;;;;;;22.25;12.35;;;8.00;99.90;;;;;;20625337;28;20053;-41
2023/02/23 09:08:35;;;;;;;23.90;12.68;;;8.10;99.90;;;;;;20624467;28;20046;-41
2023/02/23 09:18:36;;;;;;;24.13;12.07;;;8.20;99.90;;;;;;20629610;28;20053;-41
2023/02/23 09:28:39;;;;;;;16.98;7.90;;;8.20;99.90;;;;;;20638228;28;20042;-41
2023/02/23 09:38:41;;;;;;;19.40;10.38;;;8.20;99.90;;;;;;20634830;28;20057;-41
2023/02/23 09:48:42;;;;;;;25.70;10.52;;;8.20;99.90;;;;;;20646166;28;21922;-41
2023/02/23 09:58:43;;;;;;;21.67;10.77;;;8.30;99.90;;;;;;20656796;28;20405;-41
2023/02/23 10:09:13;;;;;;;11.35;7.75;;;8.40;99.90;;;;;;20645456;28;20410;-41
2023/02/23 10:19:43;;;;;;;12.80;6.32;;;8.40;99.90;;;;;;20643233;28;20054;-41
2023/02/23 10:29:47;;;;;;;18.08;8.43;;;8.50;99.90;;;;;;20631964;28;20188;-41
2023/02/23 10:39:50;;;;;;;8.85;5.13;;;8.50;99.90;;;;;;20630761;28;20050;-41
2023/02/23 10:49:54;;;;;;;12.57;7.22;;;8.60;99.90;;;;;;20646887;28;20049;-41
2023/02/23 11:00:15;;;;;;;15.95;4.70;;;8.70;99.90;;;;;;20637625;28;20048;-41
2023/02/23 11:10:26;;;;;;;6.97;3.97;;;8.70;99.90;;;;;;20646529;28;20416;-41
2023/02/23 11:20:37;;;;;;;7.50;3.92;;;8.60;99.90;;;;;;20645838;28;20061;-41
2023/02/23 11:30:41;;;;;;;9.93;4.35;;;8.50;99.90;;;;;;20653692;28;20042;-41
2023/02/23 11:41:04;;;;;;;9.10;5.38;;;8.40;99.90;;;;;;20638075;28;20046;-41
2023/02/23 11:51:06;;;;;;;10.00;4.68;;;8.40;99.90;;;;;;20645677;28;20518;-41
2023/02/23 12:01:15;;;;;;;13.07;6.38;;;8.60;99.90;;;;;;20635373;28;20042;-41
2023/02/23 12:11:23;;;;;;;10.25;4.68;;;8.70;99.90;;;;;;20646301;28;20450;-41
2023/02/23 12:21:33;;;;;;;10.10;5.30;;;8.70;99.90;;;;;;20637520;28;20065;-41
2023/02/23 12:31:46;;;;;;;9.40;3.60;;;8.70;99.90;;;;;;20634121;28;20505;-41
2023/02/23 12:41:55;;;;;;;9.27;4.15;;;8.70;99.90;;;;;;20647901;28;20375;-42
2023/02/23 12:52:09;;;;;;;14.10;5.78;;;8.70;99.90;;;;;;20643011;28;20045;-41
2023/02/23 13:02:24;;;;;;;9.77;4.43;;;8.80;99.90;;;;;;20654655;28;20026;-41
2023/02/23 13:12:57;;;;;;;16.85;7.43;;;8.80;99.90;;;;;;20650466;28;20054;-42
2023/02/23 13:23:11;;;;;;;9.80;5.70;;;9.00;99.90;;;;;;20642477;28;21459;-41
2023/02/23 13:33:23;;;;;;;6.38;3.45;;;9.00;99.90;;;;;;20656378;28;20049;-42
2023/02/23 13:43:28;;;;;;;13.38;6.22;;;9.00;99.90;;;;;;20627488;28;21162;-42
2023/02/23 13:54:00;;;;;;;11.13;5.18;;;9.00;99.90;;;;;;20624290;28;20042;-42
2023/02/23 14:04:06;;;;;;;7.22;3.58;;;8.90;99.90;;;;;;20625615;28;20529;-42
2023/02/23 14:14:13;;;;;;;9.50;4.95;;;9.10;99.90;;;;;;20632510;28;20425;-41
2023/02/23 14:24:21;;;;;;;8.93;4.88;;;9.10;99.90;;;;;;20633148;28;20050;-42
2023/02/23 14:34:41;;;;;;;6.68;2.92;;;8.90;99.90;;;;;;20632010;28;20227;-42
2023/02/23 14:44:50;;;;;;;7.32;3.40;;;9.00;99.90;;;;;;20619481;28;20046;-42
2023/02/23 14:55:03;;;;;;;10.63;5.05;;;9.40;99.90;;;;;;20611250;28;20041;-42
2023/02/23 15:05:15;;;;;;;3.00;1.58;;;9.40;99.90;;;;;;20631477;28;20059;-41
2023/02/23 15:15:21;;;;;;;3.75;2.08;;;9.00;93.60;;;;;;20625371;28;20042;-42
2023/02/23 15:25:26;;;;;;;3.88;1.63;;;8.60;94.80;;;;;;20627278;28;20334;-42
2023/02/23 15:35:30;;;;;;;10.40;3.28;;;8.30;96.00;;;;;;20653772;28;20453;-42
2023/02/23 15:45:41;;;;;;;18.80;5.30;;;8.10;97.60;;;;;;20644701;28;20497;-42
2023/02/23 15:55:43;;;;;;;10.30;3.38;;;7.90;99.90;;;;;;20633924;28;20512;-41
2023/02/23 16:06:07;;;;;;;9.48;2.97;;;7.90;99.90;;;;;;20635713;28;21344;-41
2023/02/23 16:16:17;;;;;;;10.45;3.88;;;7.80;99.90;;;;;;20633205;28;20652;-41
2023/02/23 16:26:25;;;;;;;9.70;3.30;;;7.60;99.90;;;;;;20637860;28;20053;-41
2023/02/23 16:36:38;;;;;;;10.35;2.75;;;7.50;99.90;;;;;;20631744;28;20041;-41
2023/02/23 16:47:16;;;;;;;11.90;4.20;;;7.40;99.90;;;;;;20637370;28;20401;-41
2023/02/23 16:57:23;;;;;;;;;;;7.40;99.90;;;;;;20583045;28;20050;-41
2023/02/23 17:07:25;;;;;;;6.65;1.98;;;7.30;99.90;;;;;;20623669;28;19965;-41
2023/02/23 17:17:26;;;;;;;5.45;2.30;;;7.20;91.50;;;;;;20632947;28;20047;-42
2023/02/23 17:27:27;;;;;;;23.00;6.60;;;7.20;74.50;;;;;;20604885;28;21985;-41
2023/02/23 17:37:28;;;;;;;10.98;2.80;;;7.10;53.20;;;;;;20604409;28;20108;-42
2023/02/23 17:47:30;;;;;;;4.88;2.20;;;7.10;53.60;;;;;;20617788;28;20046;-42
2023/02/23 17:57:31;;;;;;;6.60;3.67;;;7.10;44.30;;;;;;20602900;28;20547;-42
2023/02/23 18:07:33;;;;;;;10.15;1.75;;;7.00;39.20;;;;;;20609228;28;20046;-42
2023/02/23 18:17:35;;;;;;;3.65;1.23;;;6.90;41.20;;;;;;20617117;28;20050;-42
2023/02/23 18:27:36;;;;;;;3.38;1.50;;;6.80;45.90;;;;;;20605929;28;20045;-42
2023/02/23 18:37:37;;;;;;;7.82;2.03;;;6.90;45.20;;;;;;21800939;23;20053;-42
2023/02/23 18:47:39;;;;;;;3.00;0.85;;;6.80;41.90;;;;;;20641412;28;20048;-42
2023/02/23 18:57:40;;;;;;;3.35;1.13;;;6.80;29.50;;;;;;20636979;28;20049;-42
2023/02/23 19:07:41;;;;;;;7.78;2.72;;;6.80;32.80;;;;;;20565377;28;20077;-42
2023/02/23 19:17:42;;;;;;;5.82;2.45;;;6.80;27.30;;;;;;20634470;28;20065;-42
2023/02/23 19:27:43;;;;;;;4.95;2.22;;;6.70;24.90;;;;;;20625065;28;21632;-42
2023/02/23 19:37:46;;;;;;;16.05;3.40;;;6.60;28.70;;;;;;20612396;28;20426;-43
2023/02/23 19:47:50;;;;;;;9.30;3.13;;;6.60;34.00;;;;;;20538113;28;21340;-42
2023/02/23 19:57:52;;;;;;;8.27;2.10;;;6.60;33.60;;;;;;20528131;28;20069;-42
2023/02/23 22:38:05;;;;;;;7.28;2.72;;;3.80;35.80;;;;;;22078916;23;20118;-78
2023/02/23 22:59:27;;;;;;;1.67;1.23;;;3.50;40.90;;;;;;20058327;29;20069;-78
2023/02/23 23:09:52;;;;;;;2.83;1.17;;;3.30;41.50;;;;;;20010234;29;20098;-78
2023/02/23 23:20:10;;;;;;;5.75;1.85;;;3.10;42.10;;;;;;19921272;29;20045;-82
2023/02/23 23:31:09;;;;;;;3.70;1.33;;;3.10;50.90;;;;;;19927303;29;20125;-82
2023/02/23 23:41:52;;;;;;;9.63;2.65;;;3.10;68.10;;;;;;19968991;29;20058;-79
2023/02/23 23:52:45;;;;;;;7.25;2.65;;;3.10;81.60;;;;;;20022988;29;20049;-78
